Nearby METAR Reports



KADS - Dallas/Addison, Texas, USA
Distance from station: SSW 10mi, 16km
Updated: Fri, 14-Dec-2018 3:55am CST
Overcast
Overcast
 Wind from NNW
Wind: NNW 15 mph , 24 km/h, Gust: 23 mph , 37 km/h
Temperature: 45°F , 7°C
Wind Chill: 38°F , 3°C
Dew Point: 43°F , 6°C
Humidity: 93%
Barometer: 29.86 inHg , 1011.2 hPa
Clouds: Overcast
Visibility: 10 miles , 16 km
Cloud details: Overcast 700 ft
2018/12/14 09:55 KADS 140955Z AUTO 34013G20KT 10SM OVC007 07/06 A2986 RMK AO2 T00670055
KTKI - Mckinney, Texas, USA
Distance from station: ENE 11mi, 18km
Updated: Fri, 14-Dec-2018 4:00am CST
Overcast
Overcast
 Wind from N
Wind: N 16 mph , 26 km/h, Gust: 24 mph , 39 km/h
Temperature: 45°F , 7°C
Wind Chill: 38°F , 3°C
Dew Point: 43°F , 6°C
Humidity: 93%
Barometer: 29.83 inHg , 1010.2 hPa
Clouds: Overcast
Visibility: 10 miles , 16 km
Cloud details: Overcast 1100 ft
2018/12/14 10:00 KTKI 141000Z AUTO 35014G21KT 10SM OVC011 07/06 A2983 RMK AO2 CIG 008V015 T00720056
 
KDAL - Dallas/Love Fld, Texas, USA
Distance from station: SSW 18mi, 30km
Updated: Fri, 14-Dec-2018 3:53am CST
Overcast
Overcast
 Wind from NNW
Wind: NNW 15 mph , 24 km/h
Temperature: 46°F , 8°C
Wind Chill: 40°F , 4°C
Dew Point: 43°F , 6°C
Humidity: 87%
Barometer: 29.84 inHg , 1010.5 hPa
Clouds: Overcast
Visibility: 10 miles , 16 km
Cloud details: Overcast 1100 ft
2018/12/14 09:53 KDAL 140953Z 33013KT 10SM OVC011 08/06 A2984 RMK AO2 SLP104 T00780061 $
KDFW - Dallas/Ft Worth, Texas, USA
Distance from station: SW 21mi, 34km
Updated: Fri, 14-Dec-2018 3:53am CST
Light drizzle, Mist, Overcast
Light drizzle, Mist, Overcast
 Wind from NNW
Wind: NNW 17 mph , 28 km/h
Temperature: 45°F , 7°C
Wind Chill: 38°F , 3°C
Dew Point: 43°F , 6°C
Humidity: 93%
Barometer: 29.84 inHg , 1010.5 hPa
Summary: Light drizzle, Mist
Clouds: Overcast
Visibility: 6 miles , 10 km
Cloud details: Partly cloudy 800 ft
Mostly cloudy 1200 ft
Overcast 1800 ft
2018/12/14 09:53 KDFW 140953Z 34015KT 6SM -DZ BR SCT008 BKN012 OVC018 07/06 A2984 RMK AO2 SLP102 P0000 T00670056
 
KF46 - Rockwall, Texas, USA
Distance from station: ESE 22mi, 35km
Updated: Fri, 14-Dec-2018 3:55am CST
Overcast
Overcast
 Wind from N
Wind: N 12 mph , 19 km/h, Gust: 24 mph , 39 km/h
Temperature: 48°F , 9°C
Wind Chill: 43°F , 6°C
Dew Point: 46°F , 8°C
Humidity: 94%
Barometer: 29.82 inHg , 1009.8 hPa
Clouds: Overcast
Visibility: 10 miles , 16 km
Cloud details: Overcast 800 ft
2018/12/14 09:55 KF46 140955Z AUTO 35010G21KT 10SM OVC008 09/08 A2982 RMK AO2 LTG DSNT E T00900083
KDTO - Denton, Texas, USA
Distance from station: WNW 27mi, 43km
Updated: Fri, 14-Dec-2018 3:53am CST
Light rain, Mist, Overcast
Light rain, Mist, Overcast
 Wind from N
Wind: N 13 mph , 20 km/h, Gust: 23 mph , 37 km/h
Temperature: 43°F , 6°C
Wind Chill: 36°F , 2°C
Dew Point: 39°F , 4°C
Humidity: 87%
Barometer: 29.89 inHg , 1012.2 hPa
Summary: Light rain, Mist
Clouds: Overcast
Visibility: 3 miles , 5 km
Cloud details: Overcast 1100 ft
2018/12/14 09:53 KDTO 140953Z AUTO 35011G20KT 3SM -RA BR OVC011 06/04 A2989 RMK AO2 SLP120 P0003 T00610044
 
KHQZ - Mesquite, Texas, USA
Distance from station: SSE 28mi, 44km
Updated: Fri, 14-Dec-2018 3:55am CST
Overcast
Overcast
 Wind from NNW
Wind: NNW 13 mph , 20 km/h, Gust: 18 mph , 30 km/h
Temperature: 46°F , 8°C
Wind Chill: 40°F , 4°C
Dew Point: 43°F , 6°C
Humidity: 87%
Barometer: 29.84 inHg , 1010.5 hPa
Clouds: Overcast
Visibility: 10 miles , 16 km
Cloud details: Overcast 1200 ft
2018/12/14 09:55 KHQZ 140955Z AUTO 33011G16KT 10SM OVC012 08/06 A2984 RMK AO1 T00750056
KRBD - Dallas/Redbird, Texas, USA
Distance from station: SSW 30mi, 48km
Updated: Fri, 14-Dec-2018 3:53am CST

 Wind from NNW
Wind: NNW 16 mph , 26 km/h, Gust: 25 mph , 41 km/h
Temperature: 45°F , 7°C
Wind Chill: 38°F , 3°C
Dew Point: 41°F , 5°C
Humidity: 87%
Barometer: 29.83 inHg , 1010.2 hPa
Visibility: 10 miles , 16 km
2018/12/14 09:53 KRBD 140953Z AUTO 34014G22KT 10SM 07/05 A2983 RMK AO2 SLP099 T00720050 $
 
KGPM - Grand Prairie, Texas, USA
Distance from station: SSW 33mi, 53km
Updated: Fri, 14-Dec-2018 3:55am CST
Overcast
Overcast
 Wind from NW
Wind: NW 10 mph , 17 km/h, Gust: 18 mph , 30 km/h
Temperature: 45°F , 7°C
Wind Chill: 40°F , 4°C
Dew Point: 41°F , 5°C
Humidity: 87%
Barometer: 29.87 inHg , 1011.5 hPa
Clouds: Overcast
Visibility: 10 miles , 16 km
Cloud details: Overcast 1100 ft
2018/12/14 09:55 KGPM 140955Z AUTO 31009G16KT 10SM OVC011 07/05 A2987 RMK AO2 T00710050
KAFW - Ft Worth/Allianc, Texas, USA
Distance from station: WSW 34mi, 55km
Updated: Fri, 14-Dec-2018 3:53am CST
Rain, Mist, Overcast
Rain, Mist, Overcast
 Wind from NNW
Wind: NNW 16 mph , 26 km/h
Temperature: 43°F , 6°C
Wind Chill: 35°F , 2°C
Dew Point: 39°F , 4°C
Humidity: 87%
Barometer: 29.89 inHg , 1012.2 hPa
Summary: Rain, Mist
Clouds: Overcast
Visibility: 3 miles , 5 km
Cloud details: Mostly cloudy 1000 ft
Overcast 1500 ft
2018/12/14 09:53 KAFW 140953Z 34014KT 3SM RA BR BKN010 OVC015 06/04 A2989 RMK AO2 CIG 006V012 SLP124 P0008 T00610044 $
 
KLNC - Lancaster, Texas, USA
Distance from station: S 36mi, 58km
Updated: Fri, 14-Dec-2018 3:55am CST
Overcast
Overcast
 Wind from NNW
Wind: NNW 15 mph , 24 km/h
Temperature: 45°F , 7°C
Wind Chill: 38°F , 3°C
Dew Point: 43°F , 6°C
Humidity: 93%
Barometer: 29.85 inHg , 1010.8 hPa
Clouds: Overcast
Visibility: 7 miles , 11 km
Cloud details: Overcast 1000 ft
2018/12/14 09:55 KLNC 140955Z AUTO 34013KT 7SM OVC010 07/06 A2985 RMK AO2 LTG DSNT E T00710060
KGKY - Arlington, Texas, USA
Distance from station: SSW 36mi, 59km
Updated: Fri, 14-Dec-2018 3:53am CST
Overcast
Overcast
 Wind from NW
Wind: NW 15 mph , 24 km/h, Gust: 24 mph , 39 km/h
Temperature: 45°F , 7°C
Wind Chill: 38°F , 3°C
Dew Point: 43°F , 6°C
Humidity: 93%
Barometer: 29.85 inHg , 1010.8 hPa
Clouds: Overcast
Visibility: 10 miles , 16 km
Cloud details: Mostly cloudy 1100 ft
Overcast 1500 ft
2018/12/14 09:53 KGKY 140953Z AUTO 31013G21KT 10SM BKN011 OVC015 07/06 A2985 RMK AO2 CIG 008V012 SLP107 T00720061
 
KTRL - Terrell, Texas, USA
Distance from station: SE 39mi, 63km
Updated: Fri, 14-Dec-2018 3:53am CST
Mist, Overcast
Mist, Overcast
 Wind from N
Wind: N 9 mph , 15 km/h
Temperature: 46°F , 8°C
Wind Chill: 41°F , 5°C
Dew Point: 43°F , 6°C
Humidity: 87%
Barometer: 29.83 inHg , 1010.2 hPa
Summary: Mist
Clouds: Overcast
Visibility: 5 miles , 8 km
Cloud details: Overcast 800 ft
2018/12/14 09:53 KTRL 140953Z AUTO 36008KT 5SM BR OVC008 08/06 A2983 RMK AO2 SLP098 T00780056
KGVT - Greenville/Major, Texas, USA
Distance from station: E 40mi, 64km
Updated: Fri, 14-Dec-2018 3:55am CST
Overcast
Overcast
 Wind from N
Wind: N 12 mph , 19 km/h, Gust: 22 mph , 35 km/h
Temperature: 46°F , 8°C
Wind Chill: 40°F , 4°C
Dew Point: 45°F , 7°C
Humidity: 93%
Barometer: 29.81 inHg , 1009.5 hPa
Clouds: Overcast
Visibility: 10 miles , 16 km
Cloud details: Overcast 700 ft
2018/12/14 09:55 KGVT 140955Z AUTO 36010G19KT 10SM OVC007 08/07 A2981 RMK AO2 LTG DSNT E
 
KFTW - Fort Worth, Texas, USA
Distance from station: WSW 40mi, 65km
Updated: Fri, 14-Dec-2018 3:53am CST
Light rain, Overcast
Light rain, Overcast
 Wind from NW
Wind: NW 17 mph , 28 km/h, Gust: 28 mph , 44 km/h
Temperature: 43°F , 6°C
Wind Chill: 35°F , 2°C
Dew Point: 41°F , 5°C
Humidity: 93%
Barometer: 29.88 inHg , 1011.9 hPa
Summary: Light rain
Clouds: Overcast
Visibility: 7 miles , 11 km
Cloud details: Overcast 1800 ft
2018/12/14 09:53 KFTW 140953Z 32015G24KT 7SM -RA OVC018 06/05 A2988 RMK AO2 SLP119 P0001 T00560050
KGYI - Sherman/Denison, Texas, USA
Distance from station: N 43mi, 69km
Updated: Fri, 14-Dec-2018 3:55am CST
Rain, Overcast
Rain, Overcast
 Wind from NNW
Wind: NNW 16 mph , 26 km/h, Gust: 26 mph , 43 km/h
Temperature: 43°F , 6°C
Wind Chill: 35°F , 2°C
Dew Point: 41°F , 5°C
Humidity: 93%
Barometer: 29.88 inHg , 1011.9 hPa
Summary: Rain
Clouds: Overcast
Visibility: 5 miles , 8 km
Cloud details: Overcast 1100 ft
2018/12/14 09:55 KGYI 140955Z AUTO 34014G23KT 5SM RA OVC011 06/05 A2988 RMK AO2 P0002 T00600048 TSNO
 
KNFW - Fort Worth Nas, Texas, USA
Distance from station: WSW 45mi, 73km
Updated: Fri, 14-Dec-2018 4:01am CST
Light rain, Overcast
Light rain, Overcast
 Wind from NNW
Wind: NNW 16 mph , 26 km/h
Temperature: 45°F , 7°C
Wind Chill: 38°F , 3°C
Dew Point: 41°F , 5°C
Humidity: 87%
Barometer: 29.90 inHg , 1012.5 hPa
Summary: Light rain
Clouds: Overcast
Visibility: 8 miles , 13 km
Cloud details: Overcast 1000 ft
2018/12/14 10:01 KNFW 141001Z AUTO 33014KT 8SM -RA OVC010 07/05 A2990 RMK AO2 P0000 T00670050 VISNO N $
KGLE - Gainesville, Texas, USA
Distance from station: NW 46mi, 74km
Updated: Fri, 14-Dec-2018 3:55am CST
Overcast
Overcast
 Wind from NE
Wind: NE 20 mph , 31 km/h, Gust: 30 mph , 48 km/h
Temperature: 43°F , 6°C
Wind Chill: 34°F , 1°C
Dew Point: 39°F , 4°C
Humidity: 87%
Barometer: 29.91 inHg , 1012.9 hPa
Clouds: Overcast
Visibility: 10 miles , 16 km
Cloud details: Overcast 1200 ft
2018/12/14 09:55 KGLE 140955Z AUTO 05017G26KT 10SM OVC012 06/04 A2991 RMK AO2 P0001 T00550038
 
KJWY - Midlothian/Wax, Texas, USA
Distance from station: SSW 46mi, 74km
Updated: Fri, 14-Dec-2018 3:55am CST
Overcast
Overcast
 Wind from NNW
Wind: NNW 16 mph , 26 km/h, Gust: 21 mph , 33 km/h
Temperature: 45°F , 7°C
Wind Chill: 38°F , 3°C
Dew Point: 45°F , 7°C
Humidity: 100%
Barometer: 29.85 inHg , 1010.8 hPa
Clouds: Overcast
Visibility: 7 miles , 11 km
Cloud details: Overcast 900 ft
2018/12/14 09:55 KJWY 140955Z AUTO 33014G18KT 7SM OVC009 07/07 A2985 RMK AO2 T00670067
KFWS - Fort Worth/88d, Texas, USA
Distance from station: SW 49mi, 79km
Updated: Fri, 14-Dec-2018 3:55am CST
Mist, Overcast
Mist, Overcast
 Wind from NNW
Wind: NNW 21 mph , 33 km/h, Gust: 26 mph , 43 km/h
Temperature: 43°F , 6°C
Wind Chill: 34°F , 1°C
Dew Point: 41°F , 5°C
Humidity: 93%
Barometer: 29.89 inHg , 1012.2 hPa
Summary: Mist
Clouds: Overcast
Visibility: 5 miles , 8 km
Cloud details: Partly cloudy 900 ft
Mostly cloudy 1300 ft
Overcast 2000 ft
2018/12/14 09:55 KFWS 140955Z AUTO 33018G23KT 5SM BR SCT009 BKN013 OVC020 06/05 A2989 RMK AO2 T00630050